createdAt,value
2022-12-12T00:03:40.070Z,9.8
2022-12-12T00:18:39.859Z,9.76
2022-12-12T00:33:40.139Z,10.61
2022-12-12T00:48:40.329Z,9.63
2022-12-12T01:03:40.270Z,10.13
2022-12-12T01:18:40.257Z,8.25
2022-12-12T01:33:39.984Z,7.13
2022-12-12T01:48:39.997Z,7.23
2022-12-12T02:03:39.917Z,5.61
2022-12-12T02:18:39.946Z,5.8
2022-12-12T02:33:40.107Z,6.92
2022-12-12T02:48:40.013Z,5.36
2022-12-12T03:03:40.115Z,4.84
2022-12-12T03:18:40.325Z,4.87
2022-12-12T03:33:41.396Z,4.94
2022-12-12T03:48:40.275Z,4.59
2022-12-12T04:03:40.610Z,8.14
2022-12-12T04:18:40.347Z,6.21
2022-12-12T04:33:40.229Z,5.11
2022-12-12T04:48:42.973Z,5
2022-12-12T05:03:40.711Z,13.56
2022-12-12T05:18:40.412Z,21.8
2022-12-12T05:33:40.231Z,23.04
2022-12-12T05:48:40.521Z,21.61
2022-12-12T06:03:40.131Z,13.81
2022-12-12T06:18:40.465Z,44.24
2022-12-12T06:33:40.650Z,62.76
2022-12-12T06:48:40.609Z,37.68
2022-12-12T07:03:40.505Z,11.28
2022-12-12T07:18:40.663Z,8.6
2022-12-12T07:33:43.969Z,56.42
2022-12-12T07:48:40.704Z,58.35
2022-12-12T08:03:40.308Z,43.75
2022-12-12T08:18:40.735Z,33.9
2022-12-12T08:33:40.569Z,18.12
2022-12-12T08:48:40.226Z,31.7
2022-12-12T09:03:40.277Z,30.19
2022-12-12T09:33:40.374Z,12.03
2022-12-12T09:48:40.701Z,16.41
2022-12-12T10:18:40.528Z,33.11
2022-12-12T10:33:40.197Z,32.9
2022-12-12T10:48:42.728Z,36.8
2022-12-12T11:03:40.240Z,49.42
2022-12-12T11:18:40.336Z,36.26
2022-12-12T11:33:40.652Z,46.56
2022-12-12T11:48:40.454Z,58.34
2022-12-12T12:03:40.113Z,138.61
2022-12-12T12:18:40.102Z,62.42
2022-12-12T12:33:41.239Z,48.41
2022-12-12T12:48:40.104Z,51.46
2022-12-12T13:03:40.312Z,53.35
2022-12-12T13:33:40.442Z,58.59
2022-12-12T13:48:46.140Z,70.12
2022-12-12T14:03:40.792Z,66.85
2022-12-12T14:18:40.069Z,53.81
2022-12-12T14:33:40.194Z,33.5
2022-12-12T14:48:40.611Z,31.28
2022-12-12T15:03:40.269Z,33.96
2022-12-12T15:18:40.342Z,50.16
2022-12-12T15:33:40.005Z,41.11
2022-12-12T15:48:40.164Z,46.66
2022-12-12T16:03:40.186Z,40.5
2022-12-12T16:18:41.435Z,37.78
2022-12-12T16:33:40.746Z,42.51
2022-12-12T16:48:40.609Z,32.37
2022-12-12T17:03:40.311Z,49.19
2022-12-12T17:18:40.134Z,46.25
2022-12-12T17:48:40.176Z,12.54
2022-12-12T18:03:40.200Z,13.22
2022-12-12T18:18:40.221Z,59.46
2022-12-12T18:33:40.414Z,80.82
2022-12-12T18:48:39.860Z,61.65
2022-12-12T19:03:40.284Z,62.52
2022-12-12T19:18:40.084Z,54.57
2022-12-12T19:33:40.443Z,29.37
2022-12-12T19:48:44.688Z,42.19
2022-12-12T20:03:42.447Z,43.12
2022-12-12T20:48:40.754Z,22.99
2022-12-12T21:03:40.784Z,22.11
2022-12-12T21:48:40.943Z,24.62
2022-12-12T22:03:41.871Z,30.13
2022-12-12T22:18:40.573Z,29.88
2022-12-12T22:33:39.917Z,17.52
2022-12-12T22:48:40.739Z,25.09
2022-12-12T23:03:40.195Z,19
2022-12-12T23:18:40.536Z,11.14
2022-12-12T23:33:40.376Z,20.7
2022-12-12T23:48:40.040Z,17.55
